Time;durP1;ratioP1;P1;durP2;ratioP2;P2;SDS_P1;SDS_P2;PMS_P1;PMS_P2;Temp;Humidity;BMP_temperature;BMP_pressure;BME280_temperature;BME280_humidity;BME280_pressure;Samples;Min_cycle;Max_cycle;Signal;HPM_P1;HPM_P2
2023/01/05 00:00:07;;;;;;;;;;;19.30;73.80;;;;;;6245196;22;19907;-71
2023/01/05 00:02:34;;;;;;;;;;;19.30;76.00;;;;;;6244540;23;20227;-72
2023/01/05 00:05:01;;;;;;;;;;;19.40;74.20;;;;;;6245176;23;19907;-76
2023/01/05 00:22:33;;;;;;;;;;;19.70;69.20;;;;;;6213334;23;19918;-78
2023/01/05 00:25:18;;;;;;;;;;;19.70;68.60;;;;;;6214432;23;19930;-73
2023/01/05 00:27:46;;;;;;;;;;;19.80;69.90;;;;;;6213802;23;19904;-74
2023/01/05 00:30:14;;;;;;;;;;;19.80;68.90;;;;;;6213712;23;19911;-75
2023/01/05 00:32:40;;;;;;;;;;;19.80;69.70;;;;;;6214356;23;20312;-75
2023/01/05 00:35:07;;;;;;;;;;;19.90;68.30;;;;;;6214825;23;19911;-75
2023/01/05 00:37:35;;;;;;;;;;;20.00;67.70;;;;;;6214405;23;20004;-73
2023/01/05 00:40:01;;;;;;;;;;;20.00;69.90;;;;;;6214371;23;19954;-74
2023/01/05 00:42:28;;;;;;;;;;;20.00;69.40;;;;;;6214760;23;19991;-73
2023/01/05 00:44:54;;;;;;;;;;;20.00;67.50;;;;;;6215318;23;19958;-74
2023/01/05 00:47:21;;;;;;;;;;;20.10;69.30;;;;;;6216519;23;19949;-74
2023/01/05 00:49:48;;;;;;;;;;;20.10;66.80;;;;;;6216326;23;19908;-74
2023/01/05 00:52:14;;;;;;;;;;;20.20;67.40;;;;;;6216235;23;19904;-73
2023/01/05 00:54:41;;;;;;;;;;;20.20;67.70;;;;;;6216539;23;19991;-73
2023/01/05 00:57:10;;;;;;;;;;;20.20;65.30;;;;;;6216500;23;20327;-74
2023/01/05 00:59:36;;;;;;;;;;;20.20;66.10;;;;;;6217076;23;19990;-76
2023/01/05 01:02:03;;;;;;;;;;;20.30;65.90;;;;;;6216521;23;20280;-75
2023/01/05 01:04:30;;;;;;;;;;;20.30;65.60;;;;;;6216509;23;19904;-75
2023/01/05 01:06:57;;;;;;;;;;;20.30;66.00;;;;;;6216418;23;20216;-74
2023/01/05 01:09:23;;;;;;;;;;;20.30;68.10;;;;;;6190011;23;19908;-73
2023/01/05 01:11:50;;;;;;;;;;;20.20;68.20;;;;;;6216857;23;19907;-75
2023/01/05 01:14:16;;;;;;;;;;;20.10;69.80;;;;;;6216408;23;20311;-76
2023/01/05 11:13:25;;;;;;;;;;;18.50;76.70;;;;;;6238909;22;19938;-70
2023/01/05 11:15:52;;;;;;;;;;;18.40;76.10;;;;;;6243921;23;19911;-70
2023/01/05 11:18:30;;;;;;;;;;;18.40;76.70;;;;;;6244595;23;19919;-73
2023/01/05 11:21:07;;;;;;;;;;;18.40;76.50;;;;;;6244504;23;19950;-70
2023/01/05 11:23:35;;;;;;;;;;;18.30;76.30;;;;;;6245517;23;19903;-70
2023/01/05 11:26:11;;;;;;;;;;;18.40;76.50;;;;;;6244701;23;19904;-70
2023/01/05 11:28:38;;;;;;;;;;;18.30;76.10;;;;;;6218566;23;20389;-70
2023/01/05 11:31:05;;;;;;;;;;;18.30;75.80;;;;;;6245981;23;19904;-70
2023/01/05 11:33:33;;;;;;;;;;;18.30;76.00;;;;;;6244720;23;19915;-71
2023/01/05 11:36:00;;;;;;;;;;;18.30;76.20;;;;;;6218371;23;19960;-71
2023/01/05 11:38:27;;;;;;;;;;;18.30;76.60;;;;;;6245002;23;19904;-70
2023/01/05 11:40:55;;;;;;;;;;;18.40;76.30;;;;;;6218261;23;19942;-70
2023/01/05 11:43:22;;;;;;;;;;;18.30;76.60;;;;;;6216708;23;19981;-70
2023/01/05 11:45:52;;;;;;;;;;;18.40;76.80;;;;;;6217101;23;19939;-70
2023/01/05 11:48:20;;;;;;;;;;;18.40;76.90;;;;;;6217214;23;20430;-71
2023/01/05 11:50:51;;;;;;;;;;;18.30;76.90;;;;;;6216752;23;19962;-70
2023/01/05 11:53:37;;;;;;;;;;;18.30;76.70;;;;;;6191638;23;20245;-71
2023/01/05 11:56:04;;;;;;;;;;;18.30;76.40;;;;;;6243468;23;19934;-71
2023/01/05 11:58:44;;;;;;;;;;;18.30;77.20;;;;;;6244054;23;19931;-71
2023/01/05 12:01:29;;;;;;;;;;;18.30;76.80;;;;;;6243158;23;19904;-71
2023/01/05 12:04:02;;;;;;;;;;;18.30;76.80;;;;;;6244229;22;19908;-71
2023/01/05 12:06:30;;;;;;;;;;;18.30;77.10;;;;;;6244861;23;19912;-71
2023/01/05 12:09:00;;;;;;;;;;;18.20;76.90;;;;;;6244026;22;19912;-70
2023/01/05 12:11:27;;;;;;;;;;;18.20;77.20;;;;;;6243671;23;19910;-71
2023/01/05 12:45:42;;;;;;;;;;;18.00;76.40;;;;;;6239981;22;19954;-70
2023/01/05 12:48:08;;;;;;;;;;;18.10;76.40;;;;;;6239756;23;20002;-70
2023/01/05 12:50:58;;;;;;;;;;;18.00;76.10;;;;;;6247155;23;20233;-70
2023/01/05 12:53:30;;;;;;;;;;;18.00;76.60;;;;;;6227136;23;20394;-70
2023/01/05 12:55:58;;;;;;;;;;;18.10;76.70;;;;;;6246778;23;19914;-70
2023/01/05 12:58:26;;;;;;;;;;;18.10;76.70;;;;;;6246751;23;19968;-70
2023/01/05 13:00:53;;;;;;;;;;;18.10;76.60;;;;;;6245558;23;19903;-70
2023/01/05 13:03:25;;;;;;;;;;;18.10;76.60;;;;;;6246578;23;19904;-70
2023/01/05 13:06:08;;;;;;;;;;;18.00;76.60;;;;;;6219559;23;19986;-70
2023/01/05 13:08:39;;;;;;;;;;;18.00;76.60;;;;;;6219129;23;19950;-70
2023/01/05 13:11:09;;;;;;;;;;;18.00;77.00;;;;;;6219664;23;19966;-70
2023/01/05 13:13:37;;;;;;;;;;;18.00;77.30;;;;;;6246658;23;20042;-70
2023/01/05 13:16:20;;;;;;;;;;;18.00;76.80;;;;;;6246155;22;20395;-70
2023/01/05 13:18:48;;;;;;;;;;;18.00;76.60;;;;;;6246434;23;19908;-71
2023/01/05 13:21:15;;;;;;;;;;;17.90;76.90;;;;;;6246275;23;19907;-70
2023/01/05 13:23:49;;;;;;;;;;;18.00;76.60;;;;;;6220064;23;19903;-70
2023/01/05 13:26:17;;;;;;;;;;;18.00;76.80;;;;;;6247007;23;19910;-70
2023/01/05 13:28:45;;;;;;;;;;;18.00;76.80;;;;;;6246578;23;19911;-70
2023/01/05 13:31:21;;;;;;;;;;;18.00;77.10;;;;;;6245950;23;20298;-70
2023/01/05 13:33:57;;;;;;;;;;;17.90;77.20;;;;;;6245702;23;20173;-70
2023/01/05 13:36:39;;;;;;;;;;;17.90;77.40;;;;;;6245603;23;19907;-70
2023/01/05 13:39:11;;;;;;;;;;;17.90;77.80;;;;;;6219195;23;20327;-70
2023/01/05 13:41:56;;;;;;;;;;;17.80;77.80;;;;;;6219062;23;19907;-70
2023/01/05 13:44:40;;;;;;;;;;;17.80;77.80;;;;;;6246321;23;19908;-70
